Terminal Aerodrome Forecast
Issued by NWS

Home | Current Version | Previous Version | Text Only | Print | Product List | Glossary Off
Versions: 1 2 3 4 5 6 7 8 9 10 11 12 13 14 15 16 17

000
FTUS43 KMPX 032323
TAFRNH
TAF
KRNH 032323Z 0400/0424 27007KT P6SM SCT050 OVC300
     FM040200 VRB03KT 6SM HZ BKN250
     FM040800 VRB03KT 4SM BR BKN250
     FM041600 18006KT P6SM SCT050 SCT250=

USA.gov is the U.S. government's official web portal to all federal, state and local government web resources and services.